Time;durP1;ratioP1;P1;durP2;ratioP2;P2;SDS_P1;SDS_P2;PMS_P1;PMS_P2;Temp;Humidity;BMP_temperature;BMP_pressure;BME280_temperature;BME280_humidity;BME280_pressure;Samples;Min_cycle;Max_cycle;Signal;HPM_P1;HPM_P2
2023/09/18 00:01:00;;;;;;;7.93;6.45;;;17.60;99.90;;;;;;7589977;19;20753;-73
2023/09/18 00:03:33;;;;;;;12.25;6.60;;;17.80;99.90;;;;;;7593061;19;20137;-73
2023/09/18 00:06:06;;;;;;;11.70;6.25;;;17.80;99.90;;;;;;7600546;19;20014;-72
2023/09/18 00:08:39;;;;;;;7.32;6.45;;;17.70;99.90;;;;;;7595548;19;20022;-73
2023/09/18 00:11:11;;;;;;;11.07;6.68;;;17.60;99.90;;;;;;7598854;19;20638;-73
2023/09/18 00:13:44;;;;;;;10.38;6.45;;;17.60;99.90;;;;;;7603640;19;20022;-73
2023/09/18 00:16:17;;;;;;;7.50;6.15;;;17.60;99.90;;;;;;7599256;19;20015;-73
2023/09/18 00:18:49;;;;;;;9.93;7.07;;;17.60;99.90;;;;;;7593208;19;20026;-72
2023/09/18 00:21:22;;;;;;;9.02;6.38;;;17.60;99.90;;;;;;7604547;19;20031;-72
2023/09/18 00:23:54;;;;;;;9.88;6.20;;;17.50;99.90;;;;;;7596250;19;20022;-73
2023/09/18 00:26:26;;;;;;;10.68;6.40;;;17.60;99.90;;;;;;7598976;19;20018;-73
2023/09/18 00:28:59;;;;;;;9.40;6.23;;;17.50;99.90;;;;;;7603905;19;20022;-71
2023/09/18 00:31:31;;;;;;;9.00;5.78;;;17.40;99.90;;;;;;7596170;19;20025;-72
2023/09/18 00:34:03;;;;;;;12.70;6.95;;;17.40;99.90;;;;;;7598049;19;20022;-71
2023/09/18 00:36:35;;;;;;;7.57;6.03;;;17.30;99.90;;;;;;7599353;19;20958;-70
2023/09/18 00:39:08;;;;;;;9.13;5.95;;;17.20;99.90;;;;;;7598921;19;20025;-71
2023/09/18 00:41:40;;;;;;;9.82;5.90;;;17.20;99.90;;;;;;7603416;19;20026;-70
2023/09/18 00:44:13;;;;;;;12.57;6.28;;;17.20;99.90;;;;;;7601167;19;20014;-73
2023/09/18 00:46:45;;;;;;;10.50;6.63;;;17.10;99.90;;;;;;7593859;19;20019;-71
2023/09/18 00:49:18;;;;;;;9.20;6.03;;;17.10;99.90;;;;;;7586207;19;20115;-73
2023/09/18 00:51:51;;;;;;;9.50;6.30;;;17.00;99.90;;;;;;7595461;19;20022;-71
2023/09/18 00:54:24;;;;;;;9.38;6.50;;;17.00;99.90;;;;;;7594308;19;20030;-70
2023/09/18 00:56:57;;;;;;;10.45;6.47;;;17.00;99.90;;;;;;7593958;19;20026;-73
2023/09/18 00:59:30;;;;;;;12.00;6.15;;;17.00;99.90;;;;;;7599936;19;20539;-71
2023/09/18 01:02:03;;;;;;;10.57;6.22;;;16.90;99.90;;;;;;7580999;19;20018;-70
2023/09/18 01:04:37;;;;;;;7.73;5.80;;;16.80;99.90;;;;;;7587300;19;20568;-70
2023/09/18 01:07:10;;;;;;;9.65;6.50;;;16.90;99.90;;;;;;7591182;19;20025;-71
2023/09/18 01:09:43;;;;;;;10.00;7.00;;;16.80;99.90;;;;;;7594769;19;20018;-69
2023/09/18 01:12:43;;;;;;;12.32;6.53;;;16.70;99.90;;;;;;7592205;19;20018;-71
2023/09/18 01:15:32;;;;;;;7.82;6.00;;;16.80;99.90;;;;;;7588788;19;20021;-70
2023/09/18 01:18:04;;;;;;;10.77;5.43;;;16.80;99.90;;;;;;7586470;19;20041;-71
2023/09/18 01:20:37;;;;;;;9.35;5.68;;;16.80;99.90;;;;;;7597917;19;20102;-70
2023/09/18 01:23:11;;;;;;;10.05;5.57;;;16.70;99.90;;;;;;7587342;19;20110;-73
2023/09/18 01:25:43;;;;;;;9.05;5.70;;;16.70;99.90;;;;;;7588137;19;20403;-73
2023/09/18 01:28:16;;;;;;;15.88;5.20;;;16.80;99.90;;;;;;7592468;19;20011;-73
2023/09/18 01:30:48;;;;;;;8.48;5.65;;;16.90;99.90;;;;;;7592518;19;20047;-73
2023/09/18 01:33:21;;;;;;;10.85;5.65;;;17.00;99.90;;;;;;7593217;19;20014;-71
2023/09/18 01:35:55;;;;;;;7.15;5.05;;;16.90;99.90;;;;;;7592300;19;21529;-74
2023/09/18 01:38:29;;;;;;;8.52;4.82;;;16.90;99.90;;;;;;7589884;19;20611;-71
2023/09/18 01:41:01;;;;;;;6.78;5.10;;;17.00;99.90;;;;;;7583586;19;20492;-70
2023/09/18 01:43:35;;;;;;;8.57;5.32;;;17.00;99.90;;;;;;7593518;19;20044;-70
2023/09/18 01:46:08;;;;;;;9.15;5.45;;;17.00;99.90;;;;;;7586309;19;20496;-71
2023/09/18 01:48:47;;;;;;;9.60;5.20;;;16.80;99.90;;;;;;7589300;19;20633;-70
2023/09/18 01:51:19;;;;;;;7.15;4.97;;;16.70;99.90;;;;;;7586022;19;20531;-70
2023/09/18 01:53:52;;;;;;;11.02;5.13;;;16.70;99.90;;;;;;7589322;19;20944;-73
2023/09/18 01:56:25;;;;;;;11.55;4.68;;;16.60;99.90;;;;;;7578240;19;20014;-73
2023/09/18 01:58:57;;;;;;;10.25;5.60;;;16.60;99.90;;;;;;7586462;19;20050;-72
2023/09/18 02:01:30;;;;;;;8.40;4.85;;;16.60;99.90;;;;;;7587096;19;20018;-70
2023/09/18 02:04:04;;;;;;;6.72;4.47;;;16.70;99.90;;;;;;7569928;19;20030;-70
2023/09/18 02:06:57;;;;;;;9.40;4.95;;;16.80;99.90;;;;;;7592588;19;20011;-73
2023/09/18 02:09:29;;;;;;;8.98;5.07;;;16.70;99.90;;;;;;7590654;19;20018;-72
2023/09/18 02:12:02;;;;;;;8.90;4.88;;;16.60;99.90;;;;;;7586736;19;20014;-72
2023/09/18 02:14:34;;;;;;;8.15;5.10;;;16.60;99.90;;;;;;7586083;19;20642;-72
2023/09/18 02:17:07;;;;;;;12.48;4.82;;;16.50;99.90;;;;;;7585713;19;20033;-72
2023/09/18 02:19:39;;;;;;;7.05;4.70;;;16.50;99.90;;;;;;7591555;19;20014;-72
2023/09/18 02:22:11;;;;;;;10.20;4.72;;;16.50;99.90;;;;;;7588823;19;20050;-72
2023/09/18 02:24:43;;;;;;;8.68;4.65;;;16.50;99.90;;;;;;7585615;19;20919;-71
2023/09/18 02:27:18;;;;;;;10.68;5.10;;;16.50;99.90;;;;;;7587500;19;20799;-72
2023/09/18 02:29:53;;;;;;;6.72;4.80;;;16.40;99.90;;;;;;7586550;19;20023;-72
2023/09/18 02:32:25;;;;;;;11.82;5.35;;;16.40;99.90;;;;;;7580157;19;20039;-72
2023/09/18 02:34:58;;;;;;;9.95;4.65;;;16.30;99.90;;;;;;7589154;19;20563;-72
2023/09/18 02:37:30;;;;;;;9.10;5.22;;;16.30;99.90;;;;;;7589956;19;20018;-72
2023/09/18 02:40:05;;;;;;;8.75;5.10;;;16.30;99.90;;;;;;7584444;19;20044;-70
2023/09/18 02:42:37;;;;;;;10.82;5.10;;;16.20;99.90;;;;;;7591475;19;20023;-71
2023/09/18 02:45:09;;;;;;;10.73;5.10;;;16.20;99.90;;;;;;7584285;19;20056;-71
2023/09/18 02:47:42;;;;;;;9.35;4.97;;;16.20;99.90;;;;;;7581559;19;20014;-71
2023/09/18 02:50:15;;;;;;;13.32;5.30;;;16.20;99.90;;;;;;7588072;19;20018;-71
2023/09/18 02:52:47;;;;;;;11.93;4.90;;;16.20;99.90;;;;;;7572334;19;20014;-70
2023/09/18 02:55:20;;;;;;;6.70;4.78;;;16.10;99.90;;;;;;7559299;19;20114;-71
2023/09/18 02:57:53;;;;;;;9.45;4.65;;;16.10;99.90;;;;;;7572787;19;20023;-71
2023/09/18 03:00:25;;;;;;;13.95;5.10;;;16.10;99.90;;;;;;7578967;19;20029;-73
2023/09/18 03:03:17;;;;;;;11.93;5.40;;;16.00;99.90;;;;;;7571303;19;20050;-70
2023/09/18 03:05:50;;;;;;;10.43;4.55;;;16.00;99.90;;;;;;7583091;19;20022;-71
2023/09/18 03:08:22;;;;;;;8.63;4.95;;;16.10;99.90;;;;;;7588793;19;20022;-70
2023/09/18 03:10:54;;;;;;;8.35;5.18;;;16.10;99.90;;;;;;7589578;19;20019;-70
2023/09/18 03:13:28;;;;;;;7.75;4.57;;;16.00;99.90;;;;;;7564864;19;20025;-72
2023/09/18 03:16:00;;;;;;;10.73;4.45;;;16.00;99.90;;;;;;7590300;19;20017;-70
2023/09/18 03:18:33;;;;;;;9.52;4.80;;;16.10;99.90;;;;;;7593010;19;20144;-71
2023/09/18 03:21:06;;;;;;;6.82;4.30;;;16.10;99.90;;;;;;7592052;19;20768;-74
2023/09/18 03:23:38;;;;;;;5.90;4.78;;;16.30;99.90;;;;;;7593966;19;20019;-71
2023/09/18 03:26:10;;;;;;;5.82;4.50;;;16.30;99.90;;;;;;7592823;19;20007;-71
2023/09/18 03:28:43;;;;;;;8.45;5.15;;;16.20;99.90;;;;;;7594899;19;20025;-70
2023/09/18 03:31:15;;;;;;;5.78;4.40;;;16.20;99.90;;;;;;7588280;19;20022;-71
2023/09/18 03:33:47;;;;;;;8.25;4.53;;;16.10;99.90;;;;;;7585521;19;20014;-71
2023/09/18 03:36:23;;;;;;;8.05;4.68;;;16.00;99.90;;;;;;7595662;19;20014;-71
2023/09/18 03:38:56;;;;;;;8.05;5.00;;;16.00;99.90;;;;;;7595809;19;20018;-70
2023/09/18 03:41:33;;;;;;;7.57;4.40;;;16.00;99.90;;;;;;7589628;19;20025;-70
2023/09/18 03:44:06;;;;;;;7.70;3.47;;;16.00;99.90;;;;;;7587820;19;20025;-71
2023/09/18 03:46:39;;;;;;;8.02;4.07;;;16.00;99.90;;;;;;7585535;19;20030;-71
2023/09/18 03:49:11;;;;;;;13.83;4.50;;;16.00;99.90;;;;;;7565300;19;20026;-70
2023/09/18 03:51:44;;;;;;;8.80;4.28;;;16.20;99.90;;;;;;7588425;19;20014;-71
2023/09/18 03:54:17;;;;;;;8.32;4.57;;;16.30;99.90;;;;;;7565763;19;20431;-71
2023/09/18 03:56:49;;;;;;;9.52;3.95;;;16.40;99.90;;;;;;7590969;19;20023;-72
2023/09/18 03:59:21;;;;;;;5.70;4.05;;;16.50;99.90;;;;;;7579490;19;20538;-73
2023/09/18 04:01:53;;;;;;;8.38;4.25;;;16.50;99.90;;;;;;7581295;19;20019;-73
2023/09/18 04:04:25;;;;;;;8.57;4.45;;;16.40;99.90;;;;;;7576500;19;20018;-73
2023/09/18 04:06:58;;;;;;;9.05;4.38;;;16.40;99.90;;;;;;7588757;19;20560;-73
2023/09/18 04:09:30;;;;;;;10.95;4.55;;;16.20;99.90;;;;;;7591467;19;20014;-72
2023/09/18 04:12:07;;;;;;;13.48;5.15;;;16.10;99.90;;;;;;7589297;19;20642;-72
2023/09/18 04:14:39;;;;;;;11.68;4.72;;;16.10;99.90;;;;;;7576874;19;21454;-74
2023/09/18 04:17:11;;;;;;;5.95;4.05;;;16.10;99.90;;;;;;7585953;19;20029;-72
2023/09/18 04:19:44;;;;;;;8.43;4.13;;;16.00;99.90;;;;;;7586893;19;20119;-73
2023/09/18 04:22:17;;;;;;;8.88;4.10;;;16.00;99.90;;;;;;7586338;19;20018;-71
2023/09/18 04:24:49;;;;;;;13.50;5.22;;;16.00;99.90;;;;;;7570581;19;20030;-71
2023/09/18 04:27:22;;;;;;;10.40;4.65;;;15.90;99.90;;;;;;7587102;19;20022;-73
2023/09/18 04:29:54;;;;;;;6.70;4.72;;;15.80;99.90;;;;;;7587703;19;20018;-72
2023/09/18 04:32:29;;;;;;;9.70;4.53;;;15.80;99.90;;;;;;7576939;19;20014;-72
2023/09/18 04:35:02;;;;;;;7.30;4.90;;;15.80;99.90;;;;;;7581295;19;20022;-72
2023/09/18 04:37:37;;;;;;;7.45;4.90;;;15.80;99.90;;;;;;7584565;19;22585;-72
2023/09/18 04:40:12;;;;;;;10.20;4.97;;;15.70;99.90;;;;;;7572909;19;20015;-72
2023/09/18 04:42:45;;;;;;;9.23;4.30;;;15.70;99.90;;;;;;7579509;19;20621;-72
2023/09/18 04:45:17;;;;;;;11.00;4.55;;;15.70;99.90;;;;;;7581938;19;20026;-72
2023/09/18 04:47:51;;;;;;;11.18;4.30;;;15.60;99.90;;;;;;7587696;19;20018;-73
2023/09/18 04:50:26;;;;;;;8.27;4.90;;;15.60;99.90;;;;;;7584945;19;20026;-72
2023/09/18 04:52:58;;;;;;;12.60;4.90;;;15.60;99.90;;;;;;7576374;19;20029;-74
2023/09/18 04:55:31;;;;;;;9.00;4.47;;;15.60;99.90;;;;;;7581132;19;20479;-74
2023/09/18 04:58:05;;;;;;;7.53;4.80;;;15.60;99.90;;;;;;7583413;19;20029;-72
2023/09/18 05:00:37;;;;;;;9.52;3.90;;;15.70;99.90;;;;;;7578370;19;20523;-72
2023/09/18 05:03:10;;;;;;;9.32;4.70;;;15.70;99.90;;;;;;7592042;19;21126;-74
2023/09/18 05:05:44;;;;;;;10.35;4.60;;;15.70;99.90;;;;;;7580366;19;21226;-71
2023/09/18 05:08:16;;;;;;;11.48;4.57;;;15.60;99.90;;;;;;7590594;19;20105;-73
2023/09/18 05:10:48;;;;;;;5.80;4.38;;;15.70;99.90;;;;;;7595514;19;20051;-74
2023/09/18 05:13:21;;;;;;;7.68;4.90;;;15.70;99.90;;;;;;7576348;19;20109;-71
2023/09/18 05:15:53;;;;;;;13.80;4.85;;;15.70;99.90;;;;;;7578584;19;20022;-73
2023/09/18 05:18:26;;;;;;;10.00;5.00;;;15.70;99.90;;;;;;7593320;19;20023;-71
2023/09/18 05:20:58;;;;;;;12.35;4.75;;;15.80;99.90;;;;;;7599157;19;20102;-71
2023/09/18 05:23:31;;;;;;;13.95;4.70;;;15.70;99.90;;;;;;7595204;19;20154;-71
2023/09/18 05:26:04;;;;;;;12.70;4.88;;;15.80;99.90;;;;;;7553432;19;20014;-74
2023/09/18 05:28:36;;;;;;;11.50;4.32;;;15.80;99.90;;;;;;7597429;19;20052;-70
2023/09/18 05:31:09;;;;;;;11.55;5.15;;;15.80;99.90;;;;;;7547442;19;20139;-73
2023/09/18 05:33:41;;;;;;;10.67;4.57;;;15.80;99.90;;;;;;7579899;19;20017;-73
2023/09/18 05:36:14;;;;;;;9.38;4.65;;;15.80;99.90;;;;;;7573316;19;21564;-72
2023/09/18 05:38:46;;;;;;;8.95;4.65;;;15.80;99.90;;;;;;7575098;19;20018;-73
2023/09/18 05:41:19;;;;;;;9.93;4.57;;;15.80;99.90;;;;;;7593685;19;20644;-73
2023/09/18 05:43:52;;;;;;;11.13;4.43;;;15.90;99.90;;;;;;7596633;19;20015;-71
2023/09/18 05:46:24;;;;;;;11.77;4.60;;;15.90;99.90;;;;;;7594053;19;20407;-71
2023/09/18 05:48:58;;;;;;;11.02;5.22;;;16.00;99.90;;;;;;7594864;19;21095;-71
2023/09/18 05:51:32;;;;;;;18.63;5.60;;;16.10;99.90;;;;;;7594733;19;21189;-71
2023/09/18 05:54:05;;;;;;;12.20;4.80;;;16.20;99.90;;;;;;7598740;19;20018;-71
2023/09/18 05:56:38;;;;;;;9.75;4.82;;;16.20;99.90;;;;;;7601529;19;20017;-71
2023/09/18 05:59:10;;;;;;;12.38;5.07;;;16.30;99.90;;;;;;7600165;19;20023;-71
2023/09/18 06:01:42;;;;;;;15.38;4.93;;;16.40;99.90;;;;;;7594936;19;20015;-71
2023/09/18 06:04:16;;;;;;;10.63;4.80;;;16.70;99.90;;;;;;7596576;19;20022;-71
2023/09/18 06:06:49;;;;;;;11.10;4.97;;;16.70;99.90;;;;;;7598199;19;20036;-72
2023/09/18 06:09:22;;;;;;;12.80;4.88;;;16.80;99.90;;;;;;7585431;19;20022;-72
2023/09/18 06:11:54;;;;;;;14.02;4.75;;;16.90;99.90;;;;;;7593431;19;20018;-72
2023/09/18 06:14:27;;;;;;;13.50;4.68;;;17.00;99.90;;;;;;7590787;19;20980;-72
2023/09/18 06:16:59;;;;;;;13.45;4.95;;;17.10;99.90;;;;;;7595655;19;21284;-72
2023/09/18 06:19:32;;;;;;;11.57;4.53;;;17.40;99.90;;;;;;7595148;19;20870;-73
2023/09/18 06:22:05;;;;;;;16.20;4.80;;;17.50;99.90;;;;;;7597732;19;21082;-71
2023/09/18 06:24:37;;;;;;;12.05;5.00;;;17.70;99.90;;;;;;7589937;19;20483;-71
2023/09/18 06:27:11;;;;;;;11.82;4.85;;;17.80;99.90;;;;;;7596578;19;20769;-73
2023/09/18 06:29:44;;;;;;;10.98;4.65;;;17.90;99.90;;;;;;7592519;19;20019;-72
2023/09/18 06:32:16;;;;;;;11.30;4.82;;;18.00;99.90;;;;;;7594205;19;20029;-72
2023/09/18 06:34:48;;;;;;;14.80;4.85;;;18.10;99.90;;;;;;7594625;19;20475;-72
2023/09/18 06:37:21;;;;;;;11.05;4.70;;;18.10;99.90;;;;;;7596019;19;20318;-72
2023/09/18 06:39:53;;;;;;;16.48;5.03;;;18.30;99.90;;;;;;7596868;19;20022;-72
2023/09/18 06:42:25;;;;;;;20.92;5.40;;;18.40;99.90;;;;;;7595689;19;20040;-72
2023/09/18 06:45:06;;;;;;;14.25;5.20;;;18.50;99.90;;;;;;7592925;19;20022;-72
2023/09/18 06:47:40;;;;;;;17.10;4.97;;;18.60;99.90;;;;;;7592254;19;20014;-72
2023/09/18 06:50:13;;;;;;;11.90;4.35;;;18.70;99.90;;;;;;7599642;19;20022;-71
2023/09/18 06:52:46;;;;;;;16.25;4.53;;;18.80;99.90;;;;;;7603477;19;20286;-72
2023/09/18 06:55:18;;;;;;;17.05;4.53;;;18.80;99.90;;;;;;7599186;19;20854;-71
2023/09/18 06:57:52;;;;;;;12.55;4.70;;;18.80;99.90;;;;;;7600464;19;20638;-72
2023/09/18 07:00:25;;;;;;;13.88;4.95;;;18.90;99.90;;;;;;7601113;19;20021;-72
2023/09/18 07:02:57;;;;;;;11.75;4.30;;;18.90;99.90;;;;;;7601154;19;20034;-72
2023/09/18 07:05:29;;;;;;;18.73;4.93;;;19.00;99.90;;;;;;7596769;19;20022;-74
2023/09/18 07:08:02;;;;;;;11.77;4.80;;;19.00;99.90;;;;;;7603439;19;20060;-72
2023/09/18 07:10:35;;;;;;;15.57;5.03;;;19.10;99.90;;;;;;7600247;19;20014;-72
2023/09/18 07:13:08;;;;;;;19.58;5.00;;;19.20;99.90;;;;;;7603638;19;20022;-72
2023/09/18 07:15:41;;;;;;;15.23;4.78;;;19.20;99.90;;;;;;7581556;19;20019;-71
2023/09/18 07:18:14;;;;;;;15.93;4.72;;;19.40;99.90;;;;;;7600555;19;20021;-71
2023/09/18 07:20:46;;;;;;;14.02;4.88;;;19.50;99.90;;;;;;7598110;19;20022;-71
2023/09/18 07:23:19;;;;;;;18.63;5.15;;;19.50;99.90;;;;;;7600173;19;20022;-71
2023/09/18 07:25:51;;;;;;;10.35;5.03;;;19.60;99.90;;;;;;7603899;19;21050;-73
2023/09/18 07:28:24;;;;;;;11.68;5.22;;;19.70;99.90;;;;;;7604377;19;20021;-72
2023/09/18 07:30:57;;;;;;;15.63;5.70;;;19.80;99.90;;;;;;7602347;19;21349;-71
2023/09/18 07:33:29;;;;;;;10.80;4.63;;;20.00;99.90;;;;;;7599004;19;20010;-71
2023/09/18 07:36:01;;;;;;;13.98;5.78;;;20.20;99.90;;;;;;7602836;19;20654;-72
2023/09/18 07:38:33;;;;;;;17.70;5.40;;;20.40;99.90;;;;;;7601006;19;20071;-73
2023/09/18 07:41:06;;;;;;;14.57;4.93;;;20.60;99.90;;;;;;7601107;19;20101;-71
2023/09/18 07:43:39;;;;;;;14.70;4.68;;;20.70;99.90;;;;;;7598403;19;20390;-71
2023/09/18 07:46:12;;;;;;;22.33;6.18;;;20.80;99.90;;;;;;7600036;19;20022;-71
2023/09/18 07:48:44;;;;;;;17.90;5.05;;;21.00;99.90;;;;;;7601278;19;20023;-73
2023/09/18 07:51:16;;;;;;;13.02;4.53;;;21.10;99.90;;;;;;7602822;19;20053;-73
2023/09/18 07:53:48;;;;;;;15.52;4.60;;;21.30;99.90;;;;;;7602789;19;20888;-71
2023/09/18 07:56:21;;;;;;;14.45;5.10;;;21.50;99.90;;;;;;7600511;19;20007;-72
2023/09/18 07:58:53;;;;;;;18.13;5.20;;;21.50;99.90;;;;;;7596933;19;20014;-73
2023/09/18 08:01:26;;;;;;;14.43;4.77;;;21.70;99.90;;;;;;7598560;19;20022;-72
2023/09/18 08:04:02;;;;;;;17.73;4.45;;;21.80;99.90;;;;;;7601219;19;20113;-73
2023/09/18 08:06:35;;;;;;;20.42;5.20;;;22.00;99.90;;;;;;7600958;19;20591;-72
2023/09/18 08:09:10;;;;;;;12.55;4.60;;;22.10;99.90;;;;;;7602747;19;20019;-73
2023/09/18 08:11:42;;;;;;;19.63;5.25;;;22.20;99.90;;;;;;7600651;19;20015;-72
2023/09/18 08:14:18;;;;;;;15.38;5.10;;;22.30;99.90;;;;;;7601265;19;20341;-73
2023/09/18 08:16:57;;;;;;;17.40;5.28;;;22.30;99.90;;;;;;7591921;19;20015;-73
2023/09/18 08:19:29;;;;;;;10.52;4.82;;;22.30;99.90;;;;;;7598889;19;20030;-72
2023/09/18 08:22:03;;;;;;;8.98;5.05;;;22.40;99.90;;;;;;7598657;19;20033;-72
2023/09/18 08:24:36;;;;;;;11.13;4.63;;;22.30;99.90;;;;;;7594871;19;20014;-72
2023/09/18 08:27:09;;;;;;;12.57;4.25;;;22.30;99.90;;;;;;7602838;19;20364;-73
2023/09/18 08:29:41;;;;;;;9.68;4.35;;;22.30;99.90;;;;;;7595567;19;20022;-73
2023/09/18 08:32:13;;;;;;;12.73;4.72;;;22.30;99.90;;;;;;7601311;19;20023;-72
2023/09/18 08:34:46;;;;;;;12.00;4.60;;;22.30;99.90;;;;;;7596725;19;20042;-73
2023/09/18 08:37:18;;;;;;;12.35;4.22;;;22.20;99.90;;;;;;7603105;19;20103;-73
2023/09/18 08:39:50;;;;;;;13.55;4.55;;;22.20;99.90;;;;;;7596454;19;20018;-73
2023/09/18 08:42:24;;;;;;;11.38;5.05;;;22.20;99.90;;;;;;7602649;19;20019;-72
2023/09/18 08:44:59;;;;;;;9.73;4.53;;;22.30;99.90;;;;;;7596418;19;20018;-73
2023/09/18 08:47:32;;;;;;;13.18;5.13;;;22.40;99.90;;;;;;7593833;19;20018;-72
2023/09/18 08:50:05;;;;;;;9.98;4.65;;;22.40;99.90;;;;;;7602764;19;20150;-73
2023/09/18 08:52:38;;;;;;;;;;;22.50;99.90;;;;;;7595770;19;20034;-75
2023/09/18 08:55:11;;;;;;;14.00;4.33;;;22.50;99.90;;;;;;7600215;19;19956;-72
2023/09/18 08:57:45;;;;;;;10.80;5.03;;;22.40;99.90;;;;;;7598443;19;20827;-72
2023/09/18 09:00:18;;;;;;;7.32;4.75;;;22.40;99.90;;;;;;7599880;19;20050;-73
2023/09/18 09:02:52;;;;;;;12.82;4.80;;;22.50;99.90;;;;;;7598736;19;20548;-72
2023/09/18 09:05:25;;;;;;;12.98;4.35;;;22.50;99.90;;;;;;7598505;19;20019;-73
2023/09/18 09:07:57;;;;;;;11.60;4.70;;;22.40;99.90;;;;;;7597486;19;20020;-72
2023/09/18 09:10:30;;;;;;;12.60;4.82;;;22.40;99.90;;;;;;7599334;19;20321;-72
2023/09/18 09:13:03;;;;;;;13.52;5.50;;;22.40;99.90;;;;;;7599817;19;21036;-73
2023/09/18 09:15:46;;;;;;;11.85;4.78;;;22.40;99.90;;;;;;7595530;19;20926;-73
2023/09/18 09:18:19;;;;;;;11.13;4.68;;;22.20;99.90;;;;;;7600866;19;20085;-73
2023/09/18 09:20:59;;;;;;;11.40;5.03;;;22.30;99.90;;;;;;7594569;19;20048;-73
2023/09/18 09:23:52;;;;;;;8.07;4.32;;;22.20;99.90;;;;;;7600862;19;20014;-73
2023/09/18 09:26:25;;;;;;;12.60;4.85;;;22.20;99.90;;;;;;7596943;19;20017;-73
2023/09/18 09:29:20;;;;;;;7.77;4.37;;;22.20;99.90;;;;;;7604638;19;20021;-71
2023/09/18 09:31:56;;;;;;;10.07;4.40;;;22.30;99.90;;;;;;7606877;19;20314;-72
2023/09/18 09:34:30;;;;;;;12.68;4.28;;;22.50;99.90;;;;;;7601553;19;20010;-71
2023/09/18 09:37:04;;;;;;;15.38;5.72;;;22.70;99.90;;;;;;7604835;19;20014;-72
2023/09/18 09:39:52;;;;;;;12.63;4.82;;;22.90;99.90;;;;;;7602840;19;20018;-72
2023/09/18 09:42:24;;;;;;;10.93;4.55;;;23.00;99.90;;;;;;7598505;19;20026;-72
2023/09/18 09:45:02;;;;;;;;;;;23.10;99.90;;;;;;7599449;19;20015;-71
2023/09/18 09:47:35;;;;;;;12.23;5.07;;;23.00;99.90;;;;;;7592247;19;19918;-72
2023/09/18 09:50:18;;;;;;;9.73;4.43;;;23.10;99.90;;;;;;7605581;19;20022;-72
2023/09/18 09:52:52;;;;;;;12.90;5.00;;;23.10;99.90;;;;;;7593353;19;20022;-72
2023/09/18 09:55:25;;;;;;;14.40;4.43;;;23.10;99.90;;;;;;7596634;19;20529;-72
2023/09/18 09:57:59;;;;;;;15.95;4.55;;;23.10;99.90;;;;;;7601834;19;20581;-72
2023/09/18 10:00:49;;;;;;;15.65;4.75;;;23.10;99.90;;;;;;7600066;19;20018;-71
2023/09/18 10:03:22;;;;;;;12.63;4.72;;;23.10;99.90;;;;;;7601289;19;20094;-72
2023/09/18 10:05:57;;;;;;;15.27;4.90;;;23.10;99.90;;;;;;7598554;19;20724;-71
2023/09/18 10:08:31;;;;;;;12.88;4.85;;;23.10;99.90;;;;;;7600434;19;20018;-72
2023/09/18 10:11:10;;;;;;;10.88;4.88;;;23.20;99.90;;;;;;7599484;19;20018;-72
2023/09/18 10:13:51;;;;;;;14.85;5.32;;;23.30;99.90;;;;;;7598975;19;20023;-72
2023/09/18 10:16:27;;;;;;;20.30;4.63;;;23.20;99.90;;;;;;7600508;19;20022;-72
2023/09/18 10:19:08;;;;;;;19.95;5.13;;;23.20;99.90;;;;;;7599960;19;21201;-72
2023/09/18 10:21:55;;;;;;;18.92;4.68;;;23.20;99.90;;;;;;7594746;19;20026;-73
2023/09/18 10:24:36;;;;;;;19.45;5.18;;;23.20;99.90;;;;;;7598368;19;20034;-72
2023/09/18 10:27:14;;;;;;;14.48;4.45;;;23.10;99.90;;;;;;7598350;19;21055;-72
2023/09/18 10:29:51;;;;;;;15.15;4.82;;;23.00;99.90;;;;;;7596872;19;20098;-72
2023/09/18 10:32:28;;;;;;;19.27;5.88;;;23.10;99.90;;;;;;7601358;19;20022;-72
2023/09/18 10:35:04;;;;;;;12.23;4.78;;;23.20;99.90;;;;;;7594600;19;20022;-72
2023/09/18 10:37:38;;;;;;;16.05;3.78;;;23.20;99.90;;;;;;7599892;19;21119;-72
2023/09/18 10:40:11;;;;;;;14.15;4.60;;;23.20;99.90;;;;;;7597073;19;20570;-73
2023/09/18 10:42:46;;;;;;;14.45;4.55;;;23.20;99.90;;;;;;7594323;19;20015;-72
2023/09/18 10:45:18;;;;;;;17.98;4.18;;;23.20;99.90;;;;;;7597092;19;20048;-73
2023/09/18 10:47:51;;;;;;;10.30;4.10;;;23.10;99.90;;;;;;7594383;19;20500;-74
2023/09/18 10:50:26;;;;;;;12.45;4.95;;;23.20;99.90;;;;;;7597900;19;20026;-72
2023/09/18 10:52:59;;;;;;;19.05;4.38;;;23.20;99.90;;;;;;7595726;19;20011;-73
2023/09/18 10:55:33;;;;;;;14.32;4.25;;;23.10;99.90;;;;;;7597890;19;20022;-72
2023/09/18 10:58:06;;;;;;;13.57;3.90;;;23.20;99.90;;;;;;7595181;19;20022;-73
2023/09/18 11:00:41;;;;;;;10.98;4.30;;;23.20;99.90;;;;;;7599817;19;21039;-72
2023/09/18 11:03:18;;;;;;;12.73;3.90;;;23.20;99.90;;;;;;7598628;19;20492;-73
2023/09/18 11:06:06;;;;;;;13.48;3.90;;;23.30;99.90;;;;;;7598151;19;20077;-72
2023/09/18 11:08:46;;;;;;;14.35;4.63;;;23.40;99.90;;;;;;7606897;19;20010;-73
2023/09/18 11:11:25;;;;;;;15.32;4.22;;;23.40;99.90;;;;;;7599984;19;21142;-72
2023/09/18 11:13:58;;;;;;;13.65;4.20;;;23.50;99.90;;;;;;7588700;19;20014;-71
2023/09/18 11:16:38;;;;;;;19.20;4.82;;;23.50;99.90;;;;;;7560804;19;20022;-73
2023/09/18 11:19:13;;;;;;;18.98;4.75;;;23.60;99.90;;;;;;7590571;19;20014;-74
2023/09/18 11:21:46;;;;;;;26.27;4.80;;;23.60;99.90;;;;;;7593930;19;20015;-73
2023/09/18 11:24:21;;;;;;;17.20;4.80;;;23.50;99.90;;;;;;7597540;19;20034;-73
2023/09/18 11:26:54;;;;;;;15.15;4.20;;;23.50;99.90;;;;;;7593645;19;20014;-72
2023/09/18 11:29:28;;;;;;;15.50;4.40;;;23.50;99.90;;;;;;7601169;19;20094;-73
2023/09/18 11:32:03;;;;;;;12.38;4.93;;;23.60;99.90;;;;;;7594354;19;20017;-72
2023/09/18 11:34:41;;;;;;;22.80;5.30;;;23.60;99.90;;;;;;7597270;19;20026;-73
2023/09/18 11:37:21;;;;;;;19.38;5.72;;;23.40;99.90;;;;;;7600953;19;20264;-72
2023/09/18 11:39:55;;;;;;;16.40;5.70;;;23.20;99.90;;;;;;7606810;19;20056;-73
2023/09/18 11:42:28;;;;;;;;;;;23.00;99.90;;;;;;7605457;19;20026;-70
2023/09/18 11:45:01;;;;;;;20.20;6.68;;;22.90;99.90;;;;;;7607887;19;19930;-72
2023/09/18 11:47:42;;;;;;;17.73;6.60;;;22.80;99.90;;;;;;7598423;19;20484;-72
2023/09/18 11:50:17;;;;;;;15.15;6.25;;;22.70;99.90;;;;;;7607981;19;20590;-72
2023/09/18 11:52:49;;;;;;;19.25;6.25;;;22.70;99.90;;;;;;7602536;19;20090;-72
2023/09/18 11:55:21;;;;;;;10.77;4.40;;;22.50;99.90;;;;;;7600654;19;20014;-72
2023/09/18 11:57:58;;;;;;;11.68;4.20;;;22.30;99.90;;;;;;7604942;19;20018;-72
2023/09/18 12:00:31;;;;;;;17.25;3.88;;;22.10;99.90;;;;;;7606963;19;20732;-72
2023/09/18 12:03:25;;;;;;;10.80;3.72;;;22.00;99.90;;;;;;7594791;19;20430;-73
2023/09/18 12:06:05;;;;;;;11.93;3.15;;;21.80;99.90;;;;;;7599418;19;20022;-74
2023/09/18 12:08:38;;;;;;;13.32;2.90;;;21.60;99.90;;;;;;7596057;19;20015;-74
2023/09/18 12:11:16;;;;;;;8.47;2.57;;;21.50;99.90;;;;;;7588244;19;20018;-74
2023/09/18 12:13:52;;;;;;;8.10;2.30;;;21.30;99.90;;;;;;7589192;19;20018;-73
2023/09/18 12:16:24;;;;;;;9.68;2.78;;;21.20;99.90;;;;;;7586818;19;20050;-73
2023/09/18 12:18:57;;;;;;;12.13;3.22;;;21.20;99.90;;;;;;7595766;19;20920;-72
2023/09/18 12:21:29;;;;;;;7.68;2.78;;;21.20;99.90;;;;;;7599426;19;20021;-73
2023/09/18 12:24:04;;;;;;;6.10;2.30;;;20.90;99.90;;;;;;7593385;19;20026;-73
2023/09/18 12:26:41;;;;;;;8.60;2.17;;;20.80;99.90;;;;;;7590719;19;21325;-72
2023/09/18 12:29:13;;;;;;;6.10;2.13;;;20.70;99.90;;;;;;7577205;19;20018;-72
2023/09/18 12:31:46;;;;;;;29.75;3.58;;;20.50;99.90;;;;;;7599682;19;20110;-71
2023/09/18 12:34:23;;;;;;;8.55;1.98;;;20.30;99.90;;;;;;7600293;19;20052;-71
2023/09/18 12:36:56;;;;;;;4.15;1.92;;;20.10;99.90;;;;;;7606836;19;21463;-71
2023/09/18 12:39:33;;;;;;;6.88;2.33;;;20.00;99.90;;;;;;7614438;19;20015;-73
2023/09/18 12:42:05;;;;;;;4.93;1.90;;;19.90;99.90;;;;;;7600831;19;20116;-72
2023/09/18 12:44:38;;;;;;;4.72;1.70;;;19.90;99.90;;;;;;7607604;19;20022;-71
2023/09/18 12:47:10;;;;;;;6.00;2.10;;;19.70;99.90;;;;;;7592052;19;20019;-72
2023/09/18 12:49:43;;;;;;;3.78;1.70;;;19.60;99.90;;;;;;7596624;19;20030;-72
2023/09/18 12:52:22;;;;;;;3.90;2.03;;;19.70;99.90;;;;;;7596439;19;20799;-72
2023/09/18 12:54:56;;;;;;;3.92;1.63;;;19.60;99.90;;;;;;7610750;19;20010;-74
2023/09/18 12:57:28;;;;;;;4.78;1.55;;;19.50;99.90;;;;;;7612027;19;20484;-73
2023/09/18 13:00:10;;;;;;;4.70;1.70;;;19.40;99.90;;;;;;7614238;19;20033;-72
2023/09/18 13:02:44;;;;;;;5.55;1.95;;;19.30;99.90;;;;;;7604834;19;20018;-72
2023/09/18 13:05:25;;;;;;;2.45;1.10;;;19.00;99.90;;;;;;7612154;19;20015;-71
2023/09/18 13:08:03;;;;;;;6.53;2.20;;;19.20;99.90;;;;;;7607973;19;20021;-71
2023/09/18 13:10:46;;;;;;;4.50;1.40;;;18.90;99.90;;;;;;7612669;19;20017;-72
2023/09/18 13:13:21;;;;;;;3.10;1.40;;;18.80;99.90;;;;;;7599970;19;20344;-72
2023/09/18 13:15:59;;;;;;;3.15;1.60;;;18.70;99.90;;;;;;7593549;19;20011;-70